createdAt,value
2023-02-18T00:03:17.728Z,99862.44
2023-02-18T00:08:40.282Z,99825.33
2023-02-18T00:14:04.940Z,99813.43
2023-02-18T00:19:30.594Z,99864.63
2023-02-18T00:24:52.816Z,99850.66
2023-02-18T00:30:15.330Z,99871.61
2023-02-18T00:35:37.706Z,99880.97
2023-02-18T00:41:00.492Z,99875.69
2023-02-18T00:46:24.362Z,99907.84
2023-02-18T00:51:47.657Z,99896.94
2023-02-18T00:57:09.973Z,99913.48
2023-02-18T01:02:32.163Z,99898.55
2023-02-18T01:07:54.409Z,99910.84
2023-02-18T01:13:17.018Z,99877.86
2023-02-18T01:18:40.167Z,99884.38
2023-02-18T01:24:03.081Z,99910.22
2023-02-18T01:29:25.617Z,99935.14
2023-02-18T01:34:47.928Z,99927.86
2023-02-18T01:40:10.414Z,99934.83
2023-02-18T01:46:11.054Z,99934.52
2023-02-18T01:51:43.117Z,99922.98
2023-02-18T01:57:19.282Z,99956.81
2023-02-18T02:02:45.731Z,99935.45
2023-02-18T02:08:09.895Z,99989.77
2023-02-18T02:14:04.994Z,99941.24
2023-02-18T02:20:16.071Z,99974.51
2023-02-18T02:25:55.131Z,99940.59
2023-02-18T02:31:27.850Z,99948.70
2023-02-18T02:37:04.042Z,99953.97
2023-02-18T02:42:49.773Z,99949.27
2023-02-18T02:48:37.931Z,99951.83
2023-02-18T02:54:01.975Z,99947.57
2023-02-18T02:59:39.408Z,99978.80
2023-02-18T03:05:24.629Z,99962.92
2023-02-18T03:11:01.252Z,99992.13
2023-02-18T03:16:52.101Z,99969.73
2023-02-18T03:22:35.790Z,99956.54
2023-02-18T03:28:05.818Z,99970.25
2023-02-18T03:33:42.211Z,99977.70
2023-02-18T03:39:18.082Z,99963.87
2023-02-18T03:44:40.299Z,99979.80
2023-02-18T03:50:02.568Z,99938.20
2023-02-18T03:55:25.382Z,99993.08
2023-02-18T04:00:48.209Z,99995.00
2023-02-18T04:06:10.780Z,100000.97
2023-02-18T04:11:33.029Z,100011.13
2023-02-18T04:16:55.279Z,100006.19
2023-02-18T04:22:17.541Z,100013.23
2023-02-18T04:27:39.887Z,100011.48
2023-02-18T04:33:02.465Z,100041.33
2023-02-18T04:38:25.158Z,100018.30
2023-02-18T04:43:48.224Z,100044.31
2023-02-18T04:49:10.505Z,100030.98
2023-02-18T04:54:32.731Z,100005.20
2023-02-18T04:59:55.089Z,100017.77
2023-02-18T05:05:18.019Z,100041.00
2023-02-18T05:10:40.583Z,100042.24
2023-02-18T05:16:03.674Z,100052.43
2023-02-18T05:21:25.963Z,100075.00
2023-02-18T05:26:48.443Z,100059.56
2023-02-18T05:32:10.789Z,100084.97
2023-02-18T05:37:33.013Z,100063.86
2023-02-18T05:42:55.198Z,100084.13
2023-02-18T05:48:17.558Z,100076.61
2023-02-18T05:53:39.823Z,100100.78
2023-02-18T05:59:02.059Z,100099.52
2023-02-18T06:04:24.545Z,100094.67
2023-02-18T06:09:47.658Z,100105.63
2023-02-18T06:15:10.151Z,100112.59
2023-02-18T06:20:32.567Z,100159.76
2023-02-18T06:25:56.019Z,100117.33
2023-02-18T06:31:18.565Z,100132.36
2023-02-18T06:36:41.022Z,100151.47
2023-02-18T06:42:03.287Z,100142.63
2023-02-18T06:47:25.536Z,100178.00
2023-02-18T06:52:48.264Z,100157.18
2023-02-18T06:58:10.668Z,100180.09
2023-02-18T07:03:33.717Z,100194.16
2023-02-18T07:08:56.013Z,100162.89
2023-02-18T07:14:18.209Z,100151.28
2023-02-18T07:19:40.510Z,100161.36
2023-02-18T07:25:06.206Z,100176.56
2023-02-18T07:30:28.713Z,100184.34
2023-02-18T07:35:51.015Z,100170.27
2023-02-18T07:41:14.689Z,100175.81
2023-02-18T07:46:36.978Z,100202.92
2023-02-18T07:52:04.426Z,100163.98
2023-02-18T07:57:26.965Z,100174.91
2023-02-18T08:02:50.092Z,100162.71
2023-02-18T08:08:12.812Z,100201.73
2023-02-18T08:13:35.826Z,100154.17
2023-02-18T08:18:58.507Z,100163.30
2023-02-18T08:24:20.862Z,100169.63
2023-02-18T08:29:43.598Z,100213.23
2023-02-18T08:35:06.111Z,100193.88
2023-02-18T08:40:30.211Z,100198.08
2023-02-18T08:45:52.670Z,100197.63
2023-02-18T08:51:23.531Z,100187.45
2023-02-18T08:56:45.859Z,100194.03
2023-02-18T09:02:08.084Z,100232.11
2023-02-18T09:07:31.243Z,100228.16
2023-02-18T09:12:53.814Z,100231.78
2023-02-18T09:18:16.647Z,100216.11
2023-02-18T09:23:40.639Z,100255.94
2023-02-18T09:29:04.427Z,100268.31
2023-02-18T09:34:26.740Z,100270.23
2023-02-18T09:39:50.394Z,100260.00
2023-02-18T09:45:17.561Z,100249.59
2023-02-18T09:50:46.637Z,100277.44
2023-02-18T09:56:11.274Z,100252.83
2023-02-18T10:01:41.217Z,100266.55
2023-02-18T10:07:00.119Z,100246.48
2023-02-18T10:12:26.966Z,100248.24
2023-02-18T10:17:50.870Z,100273.39
2023-02-18T10:23:15.871Z,100248.03
2023-02-18T10:28:40.345Z,100241.08
2023-02-18T10:34:07.563Z,100230.83
2023-02-18T10:39:56.777Z,100232.03
2023-02-18T10:45:55.242Z,100231.65
2023-02-18T10:51:25.702Z,100201.23
2023-02-18T10:57:07.780Z,100211.58
2023-02-18T11:02:37.581Z,100216.25
2023-02-18T11:08:03.142Z,100194.82
2023-02-18T11:13:33.368Z,100220.75
2023-02-18T11:19:02.161Z,100207.02
2023-02-18T11:24:27.728Z,100179.42
2023-02-18T11:29:51.449Z,100207.39
2023-02-18T11:35:18.429Z,100181.53
2023-02-18T11:40:50.103Z,100168.94
2023-02-18T11:46:34.434Z,100160.00
2023-02-18T11:52:00.156Z,100194.27
2023-02-18T11:57:26.861Z,100171.09
2023-02-18T12:02:52.328Z,100183.70
2023-02-18T12:08:19.620Z,100136.93
2023-02-18T12:13:58.236Z,100139.79
2023-02-18T12:19:34.431Z,100123.36
2023-02-18T12:25:30.305Z,100142.80
2023-02-18T12:31:19.064Z,100147.06
2023-02-18T12:37:06.939Z,100129.53
2023-02-18T12:43:05.364Z,100138.50
2023-02-18T12:48:38.437Z,100126.12
2023-02-18T12:54:38.591Z,100131.56
2023-02-18T13:00:32.024Z,100120.78
2023-02-18T13:06:29.476Z,100111.17
2023-02-18T13:12:05.683Z,100079.15
2023-02-18T13:17:31.966Z,100084.59
2023-02-18T13:22:54.761Z,100080.00
2023-02-18T13:28:42.525Z,100055.02
2023-02-18T13:34:35.002Z,100054.79
2023-02-18T13:40:03.525Z,100050.00
2023-02-18T13:45:38.870Z,100055.96
2023-02-18T13:51:04.015Z,100040.80
2023-02-18T13:56:41.798Z,100035.45
2023-02-18T14:02:16.151Z,100056.53
2023-02-18T14:07:51.749Z,100045.37
2023-02-18T14:13:34.159Z,100045.66
2023-02-18T14:19:13.819Z,100040.94
2023-02-18T14:24:40.892Z,100044.73
2023-02-18T14:30:07.583Z,100038.26
2023-02-18T14:36:03.909Z,100069.16
2023-02-18T14:41:40.697Z,100054.30
2023-02-18T14:47:41.306Z,100055.84
2023-02-18T14:53:13.857Z,100056.77
2023-02-18T14:58:43.681Z,100059.02
2023-02-18T15:04:10.010Z,100058.70
2023-02-18T15:09:35.261Z,100064.11
2023-02-18T15:15:01.277Z,100066.06
2023-02-18T15:20:25.318Z,100094.42
2023-02-18T15:25:49.519Z,100068.39
2023-02-18T15:31:15.707Z,100078.44
2023-02-18T15:36:38.750Z,100070.56
2023-02-18T15:42:03.805Z,100046.05
2023-02-18T15:47:28.285Z,100046.91
2023-02-18T15:52:52.060Z,100048.80
2023-02-18T15:58:20.867Z,100052.59
2023-02-18T16:03:48.244Z,100048.38
2023-02-18T16:09:32.771Z,100080.33
2023-02-18T16:15:01.684Z,100081.45
2023-02-18T16:20:38.097Z,100079.12
2023-02-18T16:26:02.170Z,100086.23
2023-02-18T16:31:24.828Z,100091.78
2023-02-18T16:37:04.886Z,100080.40
2023-02-18T16:42:27.428Z,100070.82
2023-02-18T16:47:54.025Z,100071.67
2023-02-18T16:53:18.005Z,100090.16
2023-02-18T16:58:42.189Z,100083.14
2023-02-18T17:04:06.333Z,100085.98
2023-02-18T17:09:36.821Z,100097.45
2023-02-18T17:14:59.298Z,100101.99
2023-02-18T17:20:23.242Z,100106.41
2023-02-18T17:25:52.381Z,100100.34
2023-02-18T17:31:17.769Z,100106.50
2023-02-18T17:36:42.384Z,100116.44
2023-02-18T17:42:04.945Z,100136.91
2023-02-18T17:47:27.642Z,100123.02
2023-02-18T17:52:50.240Z,100146.30
2023-02-18T17:58:12.715Z,100157.99
2023-02-18T18:03:35.752Z,100185.77
2023-02-18T18:08:58.940Z,100186.97
2023-02-18T18:14:23.136Z,100191.72
2023-02-18T18:19:45.969Z,100199.16
2023-02-18T18:25:08.338Z,100205.63
2023-02-18T18:30:35.809Z,100210.37
2023-02-18T18:36:01.387Z,100212.15
2023-02-18T18:41:32.052Z,100212.92
2023-02-18T18:46:54.896Z,100212.44
2023-02-18T18:52:18.848Z,100222.39
2023-02-18T18:57:42.006Z,100236.36
2023-02-18T19:03:05.503Z,100251.66
2023-02-18T19:08:29.513Z,100257.20
2023-02-18T19:13:53.567Z,100273.47
2023-02-18T19:19:16.928Z,100266.13
2023-02-18T19:24:39.213Z,100278.16
2023-02-18T19:30:01.550Z,100284.08
2023-02-18T19:35:24.995Z,100283.78
2023-02-18T19:40:50.388Z,100288.06
2023-02-18T19:46:16.910Z,100283.48
2023-02-18T19:51:39.756Z,100291.20
2023-02-18T19:57:02.147Z,100303.44
2023-02-18T20:02:30.765Z,100320.08
2023-02-18T20:07:58.848Z,100314.70
2023-02-18T20:13:21.224Z,100311.87
2023-02-18T20:18:44.717Z,100302.97
2023-02-18T20:24:07.540Z,100314.45
2023-02-18T20:29:31.056Z,100313.59
2023-02-18T20:34:53.359Z,100322.48
2023-02-18T20:40:16.518Z,100329.92
2023-02-18T20:45:39.112Z,100332.48
2023-02-18T20:51:01.893Z,100343.88
2023-02-18T20:56:26.620Z,100350.60
2023-02-18T21:01:49.733Z,100356.77
2023-02-18T21:07:12.133Z,100376.59
2023-02-18T21:12:34.399Z,100386.19
2023-02-18T21:17:57.276Z,100385.09
2023-02-18T21:23:19.981Z,100398.15
2023-02-18T21:28:42.289Z,100395.41
2023-02-18T21:34:05.211Z,100386.59
2023-02-18T21:39:28.633Z,100394.47
2023-02-18T21:44:51.501Z,100399.17
2023-02-18T21:50:16.628Z,100379.78
2023-02-18T21:55:38.925Z,100392.89
2023-02-18T22:01:03.410Z,100399.34
2023-02-18T22:06:27.310Z,100408.61
2023-02-18T22:11:50.202Z,100405.34
2023-02-18T22:17:12.655Z,100417.83
2023-02-18T22:22:35.672Z,100406.90
2023-02-18T22:27:58.030Z,100410.36
2023-02-18T22:33:20.363Z,100426.56
2023-02-18T22:38:43.829Z,100420.16
2023-02-18T22:44:08.395Z,100425.70
2023-02-18T22:49:31.502Z,100428.36
2023-02-18T22:54:55.013Z,100440.11
2023-02-18T23:00:20.656Z,100433.68
2023-02-18T23:05:42.943Z,100442.22
2023-02-18T23:11:16.948Z,100436.26
2023-02-18T23:16:56.821Z,100441.86
2023-02-18T23:22:19.855Z,100426.73
2023-02-18T23:27:42.267Z,100452.31
2023-02-18T23:33:04.463Z,100444.02
2023-02-18T23:38:27.755Z,100450.09
2023-02-18T23:43:50.939Z,100449.16
2023-02-18T23:49:14.423Z,100446.44
2023-02-18T23:54:37.724Z,100446.28
2023-02-18T23:59:59.893Z,100434.81
